Terminal Aerodrome Forecast
Issued by NWS Tampa Bay Area, FL

Home | Current Version | Previous Version | Text Only | Print | Product List | Glossary On
Versions: 1 2 3 4 5 6 7 8 9 10 11 12
000
FTUS42 KTBW 120521
TAFSRQ
TAF
KSRQ 120521Z 1206/1306 00000KT P6SM FEW020 FEW250
     FM121400 26007KT P6SM FEW020 SCT250
     FM121700 27012G21KT P6SM SCT035 BKN250
     FM122300 31013KT P6SM FEW250
     FM130300 32009KT P6SM FEW250=

USA.gov is the U.S. government's official web portal to all federal, state and local government web resources and services.